sensor_id;sensor_type;location;lat;lon;timestamp;P1;durP1;ratioP1;P2;durP2;ratioP2
49416;SDS011;35290;39.550;8.786;2023-07-20T00:00:39;34.25;;;14.82;;
49416;SDS011;35290;39.550;8.786;2023-07-20T00:03:13;36.35;;;15.77;;
49416;SDS011;35290;39.550;8.786;2023-07-20T00:05:44;33.85;;;15.80;;
49416;SDS011;35290;39.550;8.786;2023-07-20T00:08:10;36.28;;;17.63;;
49416;SDS011;35290;39.550;8.786;2023-07-20T00:10:36;38.80;;;18.50;;
49416;SDS011;35290;39.550;8.786;2023-07-20T00:13:01;32.45;;;18.17;;
49416;SDS011;35290;39.550;8.786;2023-07-20T00:15:27;46.47;;;18.20;;
49416;SDS011;35290;39.550;8.786;2023-07-20T00:17:53;43.97;;;18.30;;
49416;SDS011;35290;39.550;8.786;2023-07-20T00:20:18;46.47;;;20.13;;
49416;SDS011;35290;39.550;8.786;2023-07-20T00:22:44;55.42;;;19.65;;
49416;SDS011;35290;39.550;8.786;2023-07-20T00:25:09;59.80;;;19.90;;
49416;SDS011;35290;39.550;8.786;2023-07-20T00:27:36;53.22;;;20.10;;
49416;SDS011;35290;39.550;8.786;2023-07-20T00:30:03;48.90;;;19.58;;
49416;SDS011;35290;39.550;8.786;2023-07-20T00:32:29;47.22;;;19.92;;
49416;SDS011;35290;39.550;8.786;2023-07-20T00:34:54;49.33;;;19.40;;
49416;SDS011;35290;39.550;8.786;2023-07-20T00:37:20;45.35;;;20.27;;
49416;SDS011;35290;39.550;8.786;2023-07-20T00:39:45;49.92;;;21.42;;
49416;SDS011;35290;39.550;8.786;2023-07-20T00:42:11;35.90;;;20.45;;
49416;SDS011;35290;39.550;8.786;2023-07-20T00:44:36;48.85;;;21.23;;
49416;SDS011;35290;39.550;8.786;2023-07-20T00:47:02;43.45;;;20.65;;
49416;SDS011;35290;39.550;8.786;2023-07-20T00:49:27;40.90;;;20.23;;
49416;SDS011;35290;39.550;8.786;2023-07-20T00:51:53;41.25;;;19.45;;
49416;SDS011;35290;39.550;8.786;2023-07-20T00:54:19;42.80;;;19.80;;
49416;SDS011;35290;39.550;8.786;2023-07-20T00:56:44;34.85;;;19.25;;
49416;SDS011;35290;39.550;8.786;2023-07-20T00:59:11;33.50;;;19.70;;
49416;SDS011;35290;39.550;8.786;2023-07-20T01:01:36;30.60;;;16.73;;
49416;SDS011;35290;39.550;8.786;2023-07-20T01:04:01;28.65;;;15.40;;
49416;SDS011;35290;39.550;8.786;2023-07-20T01:14:12;23.33;;;15.98;;
49416;SDS011;35290;39.550;8.786;2023-07-20T01:16:39;31.13;;;16.83;;
49416;SDS011;35290;39.550;8.786;2023-07-20T01:19:04;31.50;;;17.48;;
49416;SDS011;35290;39.550;8.786;2023-07-20T01:21:41;31.48;;;17.88;;
49416;SDS011;35290;39.550;8.786;2023-07-20T01:32:23;23.83;;;15.93;;
49416;SDS011;35290;39.550;8.786;2023-07-20T01:34:50;24.63;;;15.75;;
49416;SDS011;35290;39.550;8.786;2023-07-20T01:37:17;20.23;;;14.43;;
49416;SDS011;35290;39.550;8.786;2023-07-20T01:39:45;22.15;;;13.95;;
49416;SDS011;35290;39.550;8.786;2023-07-20T01:42:11;20.50;;;13.13;;
49416;SDS011;35290;39.550;8.786;2023-07-20T01:44:37;19.38;;;12.88;;
49416;SDS011;35290;39.550;8.786;2023-07-20T01:47:03;20.50;;;12.77;;
49416;SDS011;35290;39.550;8.786;2023-07-20T01:49:29;19.75;;;12.98;;
49416;SDS011;35290;39.550;8.786;2023-07-20T01:51:55;19.83;;;13.13;;
49416;SDS011;35290;39.550;8.786;2023-07-20T01:54:20;19.88;;;13.27;;
49416;SDS011;35290;39.550;8.786;2023-07-20T01:56:46;19.33;;;13.25;;
49416;SDS011;35290;39.550;8.786;2023-07-20T01:59:11;19.67;;;12.60;;
49416;SDS011;35290;39.550;8.786;2023-07-20T02:01:37;15.90;;;11.57;;
49416;SDS011;35290;39.550;8.786;2023-07-20T02:04:03;23.40;;;13.98;;
49416;SDS011;35290;39.550;8.786;2023-07-20T02:06:28;28.20;;;13.98;;
49416;SDS011;35290;39.550;8.786;2023-07-20T02:08:53;24.95;;;14.38;;
49416;SDS011;35290;39.550;8.786;2023-07-20T02:11:19;21.30;;;14.20;;
49416;SDS011;35290;39.550;8.786;2023-07-20T02:13:44;17.48;;;13.10;;
49416;SDS011;35290;39.550;8.786;2023-07-20T02:16:10;16.00;;;10.35;;
49416;SDS011;35290;39.550;8.786;2023-07-20T02:18:36;18.45;;;10.10;;
49416;SDS011;35290;39.550;8.786;2023-07-20T02:21:02;16.25;;;9.48;;
49416;SDS011;35290;39.550;8.786;2023-07-20T02:23:27;15.68;;;9.55;;
49416;SDS011;35290;39.550;8.786;2023-07-20T02:25:53;18.48;;;10.82;;
49416;SDS011;35290;39.550;8.786;2023-07-20T02:28:18;18.13;;;10.00;;
49416;SDS011;35290;39.550;8.786;2023-07-20T02:30:43;16.80;;;10.75;;
49416;SDS011;35290;39.550;8.786;2023-07-20T02:33:09;17.08;;;11.25;;
49416;SDS011;35290;39.550;8.786;2023-07-20T02:35:35;16.65;;;11.52;;
49416;SDS011;35290;39.550;8.786;2023-07-20T02:38:00;18.95;;;13.15;;
49416;SDS011;35290;39.550;8.786;2023-07-20T02:40:26;17.23;;;12.68;;
49416;SDS011;35290;39.550;8.786;2023-07-20T02:42:52;23.00;;;14.65;;
49416;SDS011;35290;39.550;8.786;2023-07-20T02:45:18;20.13;;;13.52;;
49416;SDS011;35290;39.550;8.786;2023-07-20T02:47:43;21.38;;;14.10;;
49416;SDS011;35290;39.550;8.786;2023-07-20T02:50:09;20.75;;;14.48;;
49416;SDS011;35290;39.550;8.786;2023-07-20T02:52:34;23.17;;;14.98;;
49416;SDS011;35290;39.550;8.786;2023-07-20T02:55:00;23.70;;;14.48;;
49416;SDS011;35290;39.550;8.786;2023-07-20T02:57:25;26.33;;;14.77;;
49416;SDS011;35290;39.550;8.786;2023-07-20T02:59:52;24.27;;;14.30;;
49416;SDS011;35290;39.550;8.786;2023-07-20T03:02:17;26.13;;;15.13;;
49416;SDS011;35290;39.550;8.786;2023-07-20T03:04:43;26.95;;;15.02;;
49416;SDS011;35290;39.550;8.786;2023-07-20T03:07:08;31.98;;;14.70;;
49416;SDS011;35290;39.550;8.786;2023-07-20T03:09:34;29.65;;;15.45;;
49416;SDS011;35290;39.550;8.786;2023-07-20T03:12:00;29.92;;;16.30;;
49416;SDS011;35290;39.550;8.786;2023-07-20T03:14:26;30.85;;;14.93;;
49416;SDS011;35290;39.550;8.786;2023-07-20T03:16:51;35.20;;;16.13;;
49416;SDS011;35290;39.550;8.786;2023-07-20T03:19:17;27.65;;;16.60;;
49416;SDS011;35290;39.550;8.786;2023-07-20T03:21:43;34.30;;;16.55;;
49416;SDS011;35290;39.550;8.786;2023-07-20T03:24:08;35.85;;;17.13;;
49416;SDS011;35290;39.550;8.786;2023-07-20T03:26:34;33.15;;;17.17;;
49416;SDS011;35290;39.550;8.786;2023-07-20T03:29:00;28.33;;;15.38;;
49416;SDS011;35290;39.550;8.786;2023-07-20T03:31:26;31.80;;;16.48;;
49416;SDS011;35290;39.550;8.786;2023-07-20T03:33:51;29.20;;;15.35;;
49416;SDS011;35290;39.550;8.786;2023-07-20T03:36:17;30.40;;;14.07;;
49416;SDS011;35290;39.550;8.786;2023-07-20T03:38:42;30.27;;;14.48;;
49416;SDS011;35290;39.550;8.786;2023-07-20T03:41:08;31.10;;;14.52;;
49416;SDS011;35290;39.550;8.786;2023-07-20T03:43:34;30.05;;;14.10;;
49416;SDS011;35290;39.550;8.786;2023-07-20T03:45:59;30.88;;;15.95;;
49416;SDS011;35290;39.550;8.786;2023-07-20T03:48:25;35.05;;;17.17;;
49416;SDS011;35290;39.550;8.786;2023-07-20T03:50:52;37.08;;;18.98;;
49416;SDS011;35290;39.550;8.786;2023-07-20T03:53:18;37.83;;;18.27;;
49416;SDS011;35290;39.550;8.786;2023-07-20T03:55:50;37.88;;;20.27;;
49416;SDS011;35290;39.550;8.786;2023-07-20T03:58:17;37.88;;;20.40;;
49416;SDS011;35290;39.550;8.786;2023-07-20T04:00:46;44.17;;;20.52;;
49416;SDS011;35290;39.550;8.786;2023-07-20T04:03:13;41.40;;;20.05;;
49416;SDS011;35290;39.550;8.786;2023-07-20T04:05:39;42.60;;;19.65;;
49416;SDS011;35290;39.550;8.786;2023-07-20T04:08:04;45.13;;;19.63;;
49416;SDS011;35290;39.550;8.786;2023-07-20T04:10:30;45.28;;;21.70;;
49416;SDS011;35290;39.550;8.786;2023-07-20T04:12:55;42.72;;;20.77;;
49416;SDS011;35290;39.550;8.786;2023-07-20T04:15:21;43.05;;;20.10;;
49416;SDS011;35290;39.550;8.786;2023-07-20T04:17:46;43.80;;;20.75;;
49416;SDS011;35290;39.550;8.786;2023-07-20T04:20:12;47.00;;;22.10;;
49416;SDS011;35290;39.550;8.786;2023-07-20T04:22:37;46.40;;;21.52;;
49416;SDS011;35290;39.550;8.786;2023-07-20T04:25:03;43.40;;;20.05;;
49416;SDS011;35290;39.550;8.786;2023-07-20T04:27:29;45.25;;;22.00;;
49416;SDS011;35290;39.550;8.786;2023-07-20T04:29:55;39.53;;;20.77;;
49416;SDS011;35290;39.550;8.786;2023-07-20T04:32:21;50.35;;;21.92;;
49416;SDS011;35290;39.550;8.786;2023-07-20T04:34:46;56.72;;;23.08;;
49416;SDS011;35290;39.550;8.786;2023-07-20T04:37:12;44.85;;;23.05;;
49416;SDS011;35290;39.550;8.786;2023-07-20T04:39:37;44.90;;;22.52;;
49416;SDS011;35290;39.550;8.786;2023-07-20T04:42:03;39.88;;;20.13;;
49416;SDS011;35290;39.550;8.786;2023-07-20T04:44:29;37.97;;;21.10;;
49416;SDS011;35290;39.550;8.786;2023-07-20T04:46:54;41.95;;;22.35;;
49416;SDS011;35290;39.550;8.786;2023-07-20T04:49:20;34.13;;;19.45;;
49416;SDS011;35290;39.550;8.786;2023-07-20T04:51:46;45.70;;;21.50;;
49416;SDS011;35290;39.550;8.786;2023-07-20T04:54:13;32.28;;;19.58;;
49416;SDS011;35290;39.550;8.786;2023-07-20T04:56:38;32.13;;;18.23;;
49416;SDS011;35290;39.550;8.786;2023-07-20T04:59:04;44.70;;;20.55;;
49416;SDS011;35290;39.550;8.786;2023-07-20T05:01:30;34.72;;;18.85;;
49416;SDS011;35290;39.550;8.786;2023-07-20T05:03:55;35.92;;;19.13;;
49416;SDS011;35290;39.550;8.786;2023-07-20T05:06:21;28.73;;;18.00;;
49416;SDS011;35290;39.550;8.786;2023-07-20T05:08:46;33.65;;;19.48;;
49416;SDS011;35290;39.550;8.786;2023-07-20T05:11:12;29.58;;;17.30;;
49416;SDS011;35290;39.550;8.786;2023-07-20T05:13:37;27.83;;;16.95;;
49416;SDS011;35290;39.550;8.786;2023-07-20T05:16:03;26.60;;;16.13;;
49416;SDS011;35290;39.550;8.786;2023-07-20T05:18:30;26.35;;;18.08;;
49416;SDS011;35290;39.550;8.786;2023-07-20T05:20:56;30.88;;;17.17;;
49416;SDS011;35290;39.550;8.786;2023-07-20T05:23:21;28.38;;;17.52;;
49416;SDS011;35290;39.550;8.786;2023-07-20T05:25:53;26.90;;;16.58;;
49416;SDS011;35290;39.550;8.786;2023-07-20T05:28:20;26.17;;;16.13;;
49416;SDS011;35290;39.550;8.786;2023-07-20T05:30:45;24.85;;;15.77;;
49416;SDS011;35290;39.550;8.786;2023-07-20T05:33:11;25.05;;;15.43;;
49416;SDS011;35290;39.550;8.786;2023-07-20T05:35:37;19.48;;;15.73;;
49416;SDS011;35290;39.550;8.786;2023-07-20T05:38:02;26.60;;;15.32;;
49416;SDS011;35290;39.550;8.786;2023-07-20T05:40:29;25.85;;;14.57;;
49416;SDS011;35290;39.550;8.786;2023-07-20T05:42:55;22.88;;;14.68;;
49416;SDS011;35290;39.550;8.786;2023-07-20T05:45:22;31.05;;;15.02;;
49416;SDS011;35290;39.550;8.786;2023-07-20T05:47:47;28.30;;;15.32;;
49416;SDS011;35290;39.550;8.786;2023-07-20T05:50:13;26.63;;;15.65;;
49416;SDS011;35290;39.550;8.786;2023-07-20T05:52:39;26.08;;;16.08;;
49416;SDS011;35290;39.550;8.786;2023-07-20T05:55:06;26.38;;;15.50;;
49416;SDS011;35290;39.550;8.786;2023-07-20T05:57:32;34.45;;;16.95;;
49416;SDS011;35290;39.550;8.786;2023-07-20T05:59:57;27.38;;;17.70;;
49416;SDS011;35290;39.550;8.786;2023-07-20T06:02:23;35.15;;;18.65;;
49416;SDS011;35290;39.550;8.786;2023-07-20T06:04:49;30.17;;;18.77;;
49416;SDS011;35290;39.550;8.786;2023-07-20T06:07:14;28.10;;;19.13;;
49416;SDS011;35290;39.550;8.786;2023-07-20T06:09:40;31.55;;;18.20;;
49416;SDS011;35290;39.550;8.786;2023-07-20T06:12:06;29.05;;;16.65;;
49416;SDS011;35290;39.550;8.786;2023-07-20T06:14:32;27.48;;;15.75;;
49416;SDS011;35290;39.550;8.786;2023-07-20T06:16:57;32.65;;;16.90;;
49416;SDS011;35290;39.550;8.786;2023-07-20T06:19:23;30.20;;;16.38;;
49416;SDS011;35290;39.550;8.786;2023-07-20T06:21:48;35.38;;;18.25;;
49416;SDS011;35290;39.550;8.786;2023-07-20T06:24:15;40.83;;;20.13;;
49416;SDS011;35290;39.550;8.786;2023-07-20T06:26:41;39.03;;;18.55;;
49416;SDS011;35290;39.550;8.786;2023-07-20T06:29:06;35.97;;;17.80;;
49416;SDS011;35290;39.550;8.786;2023-07-20T06:31:32;38.95;;;18.65;;
49416;SDS011;35290;39.550;8.786;2023-07-20T06:33:59;39.70;;;18.75;;
49416;SDS011;35290;39.550;8.786;2023-07-20T06:36:24;34.15;;;18.65;;
49416;SDS011;35290;39.550;8.786;2023-07-20T06:38:51;29.83;;;16.30;;
49416;SDS011;35290;39.550;8.786;2023-07-20T06:41:17;34.33;;;15.95;;
49416;SDS011;35290;39.550;8.786;2023-07-20T06:43:43;31.50;;;14.63;;
49416;SDS011;35290;39.550;8.786;2023-07-20T06:46:08;32.70;;;14.05;;
49416;SDS011;35290;39.550;8.786;2023-07-20T06:48:34;31.10;;;13.93;;
49416;SDS011;35290;39.550;8.786;2023-07-20T06:50:59;31.15;;;14.75;;
49416;SDS011;35290;39.550;8.786;2023-07-20T06:53:25;33.65;;;16.00;;
49416;SDS011;35290;39.550;8.786;2023-07-20T06:55:50;36.22;;;18.08;;
49416;SDS011;35290;39.550;8.786;2023-07-20T06:58:15;34.05;;;17.45;;
49416;SDS011;35290;39.550;8.786;2023-07-20T07:00:41;42.88;;;17.52;;
49416;SDS011;35290;39.550;8.786;2023-07-20T07:03:07;35.15;;;17.42;;
49416;SDS011;35290;39.550;8.786;2023-07-20T07:05:35;34.83;;;18.48;;
49416;SDS011;35290;39.550;8.786;2023-07-20T07:08:02;35.75;;;17.58;;
49416;SDS011;35290;39.550;8.786;2023-07-20T07:10:27;37.13;;;17.50;;
49416;SDS011;35290;39.550;8.786;2023-07-20T07:12:53;40.60;;;18.75;;
49416;SDS011;35290;39.550;8.786;2023-07-20T07:15:19;43.38;;;19.27;;
49416;SDS011;35290;39.550;8.786;2023-07-20T07:17:44;41.53;;;17.10;;
49416;SDS011;35290;39.550;8.786;2023-07-20T07:20:11;31.58;;;15.07;;
49416;SDS011;35290;39.550;8.786;2023-07-20T07:22:37;33.35;;;13.85;;
49416;SDS011;35290;39.550;8.786;2023-07-20T07:25:03;29.48;;;12.35;;
49416;SDS011;35290;39.550;8.786;2023-07-20T07:27:28;34.88;;;12.38;;
49416;SDS011;35290;39.550;8.786;2023-07-20T07:29:54;25.25;;;11.13;;
49416;SDS011;35290;39.550;8.786;2023-07-20T07:32:20;28.85;;;11.52;;
49416;SDS011;35290;39.550;8.786;2023-07-20T07:34:46;22.65;;;10.52;;
49416;SDS011;35290;39.550;8.786;2023-07-20T07:37:12;27.40;;;10.60;;
49416;SDS011;35290;39.550;8.786;2023-07-20T07:39:38;20.52;;;9.18;;
49416;SDS011;35290;39.550;8.786;2023-07-20T07:42:04;23.52;;;9.30;;
49416;SDS011;35290;39.550;8.786;2023-07-20T07:44:31;22.10;;;8.13;;
49416;SDS011;35290;39.550;8.786;2023-07-20T07:46:56;20.15;;;8.30;;
49416;SDS011;35290;39.550;8.786;2023-07-20T07:49:22;24.13;;;8.68;;
49416;SDS011;35290;39.550;8.786;2023-07-20T07:51:47;23.25;;;8.88;;
49416;SDS011;35290;39.550;8.786;2023-07-20T07:54:13;22.40;;;8.20;;
49416;SDS011;35290;39.550;8.786;2023-07-20T07:56:39;29.65;;;9.27;;
49416;SDS011;35290;39.550;8.786;2023-07-20T07:59:06;19.45;;;7.70;;
49416;SDS011;35290;39.550;8.786;2023-07-20T08:01:32;21.08;;;7.90;;
49416;SDS011;35290;39.550;8.786;2023-07-20T08:03:57;16.52;;;7.68;;
49416;SDS011;35290;39.550;8.786;2023-07-20T08:06:23;22.08;;;7.97;;
49416;SDS011;35290;39.550;8.786;2023-07-20T08:08:49;23.52;;;7.30;;
49416;SDS011;35290;39.550;8.786;2023-07-20T08:11:15;21.33;;;8.40;;
49416;SDS011;35290;39.550;8.786;2023-07-20T08:13:40;23.73;;;7.53;;
49416;SDS011;35290;39.550;8.786;2023-07-20T08:16:05;24.98;;;7.63;;
49416;SDS011;35290;39.550;8.786;2023-07-20T08:18:31;22.50;;;7.47;;
49416;SDS011;35290;39.550;8.786;2023-07-20T08:20:56;17.67;;;7.50;;
49416;SDS011;35290;39.550;8.786;2023-07-20T08:23:22;20.88;;;8.05;;
49416;SDS011;35290;39.550;8.786;2023-07-20T08:25:47;18.33;;;7.60;;
49416;SDS011;35290;39.550;8.786;2023-07-20T08:28:14;19.55;;;7.78;;
49416;SDS011;35290;39.550;8.786;2023-07-20T08:30:44;19.83;;;7.25;;
49416;SDS011;35290;39.550;8.786;2023-07-20T08:33:12;16.87;;;7.37;;
49416;SDS011;35290;39.550;8.786;2023-07-20T08:35:39;16.58;;;7.47;;
49416;SDS011;35290;39.550;8.786;2023-07-20T08:38:04;22.90;;;7.65;;
49416;SDS011;35290;39.550;8.786;2023-07-20T08:40:33;18.98;;;7.10;;
49416;SDS011;35290;39.550;8.786;2023-07-20T08:42:59;14.82;;;6.50;;
49416;SDS011;35290;39.550;8.786;2023-07-20T08:45:28;16.95;;;6.30;;
49416;SDS011;35290;39.550;8.786;2023-07-20T08:47:58;22.13;;;6.35;;
49416;SDS011;35290;39.550;8.786;2023-07-20T08:50:24;24.38;;;6.20;;
49416;SDS011;35290;39.550;8.786;2023-07-20T08:52:51;16.73;;;6.00;;
49416;SDS011;35290;39.550;8.786;2023-07-20T08:55:17;16.00;;;6.32;;
49416;SDS011;35290;39.550;8.786;2023-07-20T08:57:44;15.32;;;5.32;;
49416;SDS011;35290;39.550;8.786;2023-07-20T09:00:11;17.50;;;5.90;;
49416;SDS011;35290;39.550;8.786;2023-07-20T09:02:39;13.43;;;5.13;;
49416;SDS011;35290;39.550;8.786;2023-07-20T09:05:08;15.23;;;6.13;;
49416;SDS011;35290;39.550;8.786;2023-07-20T09:07:39;14.57;;;5.65;;
49416;SDS011;35290;39.550;8.786;2023-07-20T09:10:05;16.35;;;5.50;;
49416;SDS011;35290;39.550;8.786;2023-07-20T09:12:37;15.90;;;5.05;;
49416;SDS011;35290;39.550;8.786;2023-07-20T09:15:04;19.80;;;5.03;;
49416;SDS011;35290;39.550;8.786;2023-07-20T09:17:31;14.38;;;4.95;;
49416;SDS011;35290;39.550;8.786;2023-07-20T09:19:56;18.23;;;5.25;;
49416;SDS011;35290;39.550;8.786;2023-07-20T09:22:22;20.35;;;5.50;;
49416;SDS011;35290;39.550;8.786;2023-07-20T09:24:55;15.98;;;4.85;;
49416;SDS011;35290;39.550;8.786;2023-07-20T09:27:21;14.50;;;5.38;;
49416;SDS011;35290;39.550;8.786;2023-07-20T09:29:47;11.93;;;4.80;;
49416;SDS011;35290;39.550;8.786;2023-07-20T09:32:13;12.98;;;5.15;;
49416;SDS011;35290;39.550;8.786;2023-07-20T09:34:44;17.00;;;5.00;;
49416;SDS011;35290;39.550;8.786;2023-07-20T09:37:11;13.57;;;4.95;;
49416;SDS011;35290;39.550;8.786;2023-07-20T09:39:45;12.52;;;5.25;;
49416;SDS011;35290;39.550;8.786;2023-07-20T09:42:11;14.82;;;5.07;;
49416;SDS011;35290;39.550;8.786;2023-07-20T09:44:40;13.45;;;4.72;;
49416;SDS011;35290;39.550;8.786;2023-07-20T09:47:07;17.17;;;5.28;;
49416;SDS011;35290;39.550;8.786;2023-07-20T09:49:32;16.50;;;5.40;;
49416;SDS011;35290;39.550;8.786;2023-07-20T09:51:58;14.10;;;5.05;;
49416;SDS011;35290;39.550;8.786;2023-07-20T09:54:26;12.77;;;4.50;;
49416;SDS011;35290;39.550;8.786;2023-07-20T09:56:52;14.70;;;4.65;;
49416;SDS011;35290;39.550;8.786;2023-07-20T09:59:18;15.23;;;4.80;;
49416;SDS011;35290;39.550;8.786;2023-07-20T10:01:43;12.77;;;4.32;;
49416;SDS011;35290;39.550;8.786;2023-07-20T10:04:09;17.20;;;4.70;;
49416;SDS011;35290;39.550;8.786;2023-07-20T10:06:37;17.23;;;4.53;;
49416;SDS011;35290;39.550;8.786;2023-07-20T10:09:07;17.10;;;4.80;;
49416;SDS011;35290;39.550;8.786;2023-07-20T10:11:34;14.68;;;4.55;;
49416;SDS011;35290;39.550;8.786;2023-07-20T10:14:03;18.00;;;4.60;;
49416;SDS011;35290;39.550;8.786;2023-07-20T10:16:31;14.07;;;4.72;;
49416;SDS011;35290;39.550;8.786;2023-07-20T10:21:51;15.88;;;4.80;;
49416;SDS011;35290;39.550;8.786;2023-07-20T10:24:32;8.63;;;4.28;;
49416;SDS011;35290;39.550;8.786;2023-07-20T10:26:59;14.27;;;4.75;;
49416;SDS011;35290;39.550;8.786;2023-07-20T10:29:26;21.95;;;5.45;;
49416;SDS011;35290;39.550;8.786;2023-07-20T10:31:52;19.75;;;4.82;;
49416;SDS011;35290;39.550;8.786;2023-07-20T10:34:19;13.50;;;4.80;;
49416;SDS011;35290;39.550;8.786;2023-07-20T10:36:44;14.85;;;4.47;;
49416;SDS011;35290;39.550;8.786;2023-07-20T10:39:27;16.42;;;4.90;;
49416;SDS011;35290;39.550;8.786;2023-07-20T10:42:02;13.68;;;4.65;;
49416;SDS011;35290;39.550;8.786;2023-07-20T10:44:32;16.90;;;4.70;;
49416;SDS011;35290;39.550;8.786;2023-07-20T10:47:00;18.95;;;5.00;;
49416;SDS011;35290;39.550;8.786;2023-07-20T10:49:28;12.55;;;4.22;;
49416;SDS011;35290;39.550;8.786;2023-07-20T10:51:57;19.98;;;4.75;;
49416;SDS011;35290;39.550;8.786;2023-07-20T10:56:52;14.27;;;4.25;;
49416;SDS011;35290;39.550;8.786;2023-07-20T10:59:36;12.95;;;4.40;;
49416;SDS011;35290;39.550;8.786;2023-07-20T11:02:05;9.00;;;3.40;;
49416;SDS011;35290;39.550;8.786;2023-07-20T11:07:03;15.02;;;3.63;;
49416;SDS011;35290;39.550;8.786;2023-07-20T11:09:33;16.75;;;3.83;;
49416;SDS011;35290;39.550;8.786;2023-07-20T11:12:12;12.05;;;3.90;;
49416;SDS011;35290;39.550;8.786;2023-07-20T11:14:41;17.33;;;4.03;;
49416;SDS011;35290;39.550;8.786;2023-07-20T11:17:12;8.07;;;3.92;;
49416;SDS011;35290;39.550;8.786;2023-07-20T11:19:39;10.20;;;3.60;;
49416;SDS011;35290;39.550;8.786;2023-07-20T11:22:07;16.25;;;3.90;;
49416;SDS011;35290;39.550;8.786;2023-07-20T11:24:34;10.25;;;3.83;;
49416;SDS011;35290;39.550;8.786;2023-07-20T11:27:00;10.35;;;3.97;;
49416;SDS011;35290;39.550;8.786;2023-07-20T11:29:29;12.18;;;4.22;;
49416;SDS011;35290;39.550;8.786;2023-07-20T11:31:54;9.02;;;3.80;;
49416;SDS011;35290;39.550;8.786;2023-07-20T11:34:21;12.68;;;3.92;;
49416;SDS011;35290;39.550;8.786;2023-07-20T11:36:47;11.50;;;3.70;;
49416;SDS011;35290;39.550;8.786;2023-07-20T11:39:14;8.88;;;3.88;;
49416;SDS011;35290;39.550;8.786;2023-07-20T11:41:46;10.45;;;3.65;;
49416;SDS011;35290;39.550;8.786;2023-07-20T11:44:13;8.30;;;3.97;;
49416;SDS011;35290;39.550;8.786;2023-07-20T11:46:40;11.75;;;3.72;;
49416;SDS011;35290;39.550;8.786;2023-07-20T11:49:07;13.35;;;4.20;;
49416;SDS011;35290;39.550;8.786;2023-07-20T11:51:32;9.45;;;3.97;;
49416;SDS011;35290;39.550;8.786;2023-07-20T11:53:59;14.43;;;4.13;;
49416;SDS011;35290;39.550;8.786;2023-07-20T11:56:26;11.25;;;4.30;;
49416;SDS011;35290;39.550;8.786;2023-07-20T11:58:55;14.80;;;4.40;;
49416;SDS011;35290;39.550;8.786;2023-07-20T12:01:30;17.63;;;4.40;;
49416;SDS011;35290;39.550;8.786;2023-07-20T12:04:00;12.30;;;4.70;;
49416;SDS011;35290;39.550;8.786;2023-07-20T12:06:29;10.13;;;3.85;;
49416;SDS011;35290;39.550;8.786;2023-07-20T12:08:56;13.65;;;3.95;;
49416;SDS011;35290;39.550;8.786;2023-07-20T12:11:35;11.70;;;3.90;;
49416;SDS011;35290;39.550;8.786;2023-07-20T12:14:02;11.88;;;3.97;;
49416;SDS011;35290;39.550;8.786;2023-07-20T12:16:28;14.75;;;5.03;;
49416;SDS011;35290;39.550;8.786;2023-07-20T12:19:04;12.55;;;4.00;;
49416;SDS011;35290;39.550;8.786;2023-07-20T12:21:34;16.48;;;3.90;;
49416;SDS011;35290;39.550;8.786;2023-07-20T12:24:05;11.82;;;3.88;;
49416;SDS011;35290;39.550;8.786;2023-07-20T12:26:31;12.27;;;4.20;;
49416;SDS011;35290;39.550;8.786;2023-07-20T12:28:57;11.25;;;4.13;;
49416;SDS011;35290;39.550;8.786;2023-07-20T12:31:24;11.80;;;4.20;;
49416;SDS011;35290;39.550;8.786;2023-07-20T12:33:50;14.60;;;4.38;;
49416;SDS011;35290;39.550;8.786;2023-07-20T12:36:16;16.20;;;4.45;;
49416;SDS011;35290;39.550;8.786;2023-07-20T12:38:42;13.68;;;4.35;;
49416;SDS011;35290;39.550;8.786;2023-07-20T12:41:09;11.00;;;4.03;;
49416;SDS011;35290;39.550;8.786;2023-07-20T12:43:37;17.50;;;4.82;;
49416;SDS011;35290;39.550;8.786;2023-07-20T12:46:03;14.95;;;4.53;;
49416;SDS011;35290;39.550;8.786;2023-07-20T12:48:28;12.13;;;4.65;;
49416;SDS011;35290;39.550;8.786;2023-07-20T12:50:54;12.88;;;4.65;;
49416;SDS011;35290;39.550;8.786;2023-07-20T12:53:20;13.07;;;4.65;;
49416;SDS011;35290;39.550;8.786;2023-07-20T12:55:45;11.68;;;4.18;;
49416;SDS011;35290;39.550;8.786;2023-07-20T12:58:11;12.80;;;4.63;;
49416;SDS011;35290;39.550;8.786;2023-07-20T13:00:37;14.88;;;4.82;;
49416;SDS011;35290;39.550;8.786;2023-07-20T13:03:02;13.52;;;5.03;;
49416;SDS011;35290;39.550;8.786;2023-07-20T13:05:32;14.77;;;4.90;;
49416;SDS011;35290;39.550;8.786;2023-07-20T13:07:57;11.40;;;4.65;;
49416;SDS011;35290;39.550;8.786;2023-07-20T13:13:18;11.30;;;4.07;;
49416;SDS011;35290;39.550;8.786;2023-07-20T13:15:44;14.45;;;4.40;;
49416;SDS011;35290;39.550;8.786;2023-07-20T13:18:11;10.52;;;4.45;;
49416;SDS011;35290;39.550;8.786;2023-07-20T13:20:37;13.98;;;4.32;;
49416;SDS011;35290;39.550;8.786;2023-07-20T13:23:02;12.93;;;3.95;;
49416;SDS011;35290;39.550;8.786;2023-07-20T13:25:28;13.82;;;4.63;;
49416;SDS011;35290;39.550;8.786;2023-07-20T13:27:54;12.63;;;4.30;;
49416;SDS011;35290;39.550;8.786;2023-07-20T13:30:19;9.38;;;3.45;;
49416;SDS011;35290;39.550;8.786;2023-07-20T13:32:46;9.77;;;3.72;;
49416;SDS011;35290;39.550;8.786;2023-07-20T13:35:12;11.43;;;3.92;;
49416;SDS011;35290;39.550;8.786;2023-07-20T13:37:37;12.05;;;3.78;;
49416;SDS011;35290;39.550;8.786;2023-07-20T13:40:15;10.82;;;3.42;;
49416;SDS011;35290;39.550;8.786;2023-07-20T13:42:43;12.65;;;4.22;;
49416;SDS011;35290;39.550;8.786;2023-07-20T13:45:10;12.95;;;4.53;;
49416;SDS011;35290;39.550;8.786;2023-07-20T13:47:35;16.60;;;3.97;;
49416;SDS011;35290;39.550;8.786;2023-07-20T13:50:01;11.60;;;4.22;;
49416;SDS011;35290;39.550;8.786;2023-07-20T13:52:26;12.50;;;3.50;;
49416;SDS011;35290;39.550;8.786;2023-07-20T13:54:52;12.38;;;4.45;;
49416;SDS011;35290;39.550;8.786;2023-07-20T13:57:17;8.27;;;3.80;;
49416;SDS011;35290;39.550;8.786;2023-07-20T13:59:43;16.98;;;4.40;;
49416;SDS011;35290;39.550;8.786;2023-07-20T14:02:09;19.27;;;4.00;;
49416;SDS011;35290;39.550;8.786;2023-07-20T14:04:35;13.48;;;4.28;;
49416;SDS011;35290;39.550;8.786;2023-07-20T14:07:01;12.10;;;3.60;;
49416;SDS011;35290;39.550;8.786;2023-07-20T14:09:26;9.60;;;3.35;;
49416;SDS011;35290;39.550;8.786;2023-07-20T14:11:52;16.67;;;3.95;;
49416;SDS011;35290;39.550;8.786;2023-07-20T14:14:17;11.27;;;4.00;;
49416;SDS011;35290;39.550;8.786;2023-07-20T14:16:43;10.93;;;4.10;;
49416;SDS011;35290;39.550;8.786;2023-07-20T14:19:08;12.07;;;4.25;;
49416;SDS011;35290;39.550;8.786;2023-07-20T14:21:34;13.35;;;4.68;;
49416;SDS011;35290;39.550;8.786;2023-07-20T14:23:59;12.38;;;4.72;;
49416;SDS011;35290;39.550;8.786;2023-07-20T14:26:25;12.65;;;4.43;;
49416;SDS011;35290;39.550;8.786;2023-07-20T14:28:50;14.02;;;4.07;;
49416;SDS011;35290;39.550;8.786;2023-07-20T14:31:16;11.30;;;4.20;;
49416;SDS011;35290;39.550;8.786;2023-07-20T14:33:41;13.68;;;4.03;;
49416;SDS011;35290;39.550;8.786;2023-07-20T14:36:07;14.32;;;4.20;;
49416;SDS011;35290;39.550;8.786;2023-07-20T14:38:36;9.60;;;4.00;;
49416;SDS011;35290;39.550;8.786;2023-07-20T14:41:01;15.73;;;4.15;;
49416;SDS011;35290;39.550;8.786;2023-07-20T14:46:02;19.38;;;4.35;;
49416;SDS011;35290;39.550;8.786;2023-07-20T14:48:28;22.65;;;4.53;;
49416;SDS011;35290;39.550;8.786;2023-07-20T14:50:53;13.40;;;3.97;;
49416;SDS011;35290;39.550;8.786;2023-07-20T14:53:19;20.48;;;4.65;;